createdAt,value
2016-07-17T00:00:34.561Z,0
2016-07-17T00:01:34.465Z,0
2016-07-17T00:02:34.525Z,0
2016-07-17T00:03:34.487Z,0
2016-07-17T00:04:34.465Z,0
2016-07-17T00:05:34.462Z,0
2016-07-17T00:06:34.466Z,0
2016-07-17T00:07:34.443Z,0
2016-07-17T00:08:34.544Z,0
2016-07-17T00:09:34.419Z,0
2016-07-17T00:10:34.908Z,0
2016-07-17T00:11:34.478Z,0
2016-07-17T00:12:35.214Z,0
2016-07-17T00:13:34.655Z,0
2016-07-17T00:14:34.782Z,0
2016-07-17T00:15:34.840Z,0
2016-07-17T00:16:34.618Z,0
2016-07-17T00:17:34.892Z,0
2016-07-17T00:18:34.847Z,0
2016-07-17T00:19:34.953Z,0
2016-07-17T00:20:34.500Z,0
2016-07-17T00:21:35.593Z,0
2016-07-17T00:22:35.860Z,0
2016-07-17T00:23:34.514Z,0
2016-07-17T00:24:35.545Z,0
2016-07-17T00:25:34.932Z,0
2016-07-17T00:26:34.863Z,0
2016-07-17T00:27:34.526Z,0
2016-07-17T00:28:34.647Z,0
2016-07-17T00:29:34.471Z,0
2016-07-17T00:30:34.467Z,0
2016-07-17T00:31:35.024Z,0
2016-07-17T00:32:34.848Z,0
2016-07-17T00:33:35.031Z,0
2016-07-17T00:34:35.189Z,0
2016-07-17T00:35:34.579Z,0
2016-07-17T00:36:34.587Z,0
2016-07-17T00:37:34.553Z,0
2016-07-17T00:38:34.811Z,0
2016-07-17T00:39:34.842Z,0
2016-07-17T00:40:34.606Z,0
2016-07-17T00:41:35.103Z,0
2016-07-17T00:42:34.871Z,0
2016-07-17T00:43:35.262Z,0
2016-07-17T00:44:34.735Z,0
2016-07-17T00:45:35.091Z,0
2016-07-17T00:46:35.198Z,0
2016-07-17T00:47:34.949Z,0
2016-07-17T00:48:34.805Z,0
2016-07-17T00:49:35.217Z,0
2016-07-17T00:50:34.591Z,0
2016-07-17T00:51:34.891Z,0
2016-07-17T00:52:34.637Z,0
2016-07-17T00:53:34.510Z,0
2016-07-17T00:54:34.987Z,0
2016-07-17T00:55:34.875Z,0
2016-07-17T00:56:35.572Z,0
2016-07-17T00:57:34.923Z,0
2016-07-17T00:58:35.034Z,0
2016-07-17T00:59:35.169Z,0
2016-07-17T01:00:34.906Z,0
2016-07-17T01:01:34.517Z,0
2016-07-17T01:02:35.051Z,0
2016-07-17T01:03:34.798Z,0
2016-07-17T01:04:34.553Z,0
2016-07-17T01:05:34.831Z,0
2016-07-17T01:06:34.804Z,0
2016-07-17T01:07:34.829Z,0
2016-07-17T01:08:34.882Z,0
2016-07-17T01:09:35.008Z,0
2016-07-17T01:10:34.660Z,0
2016-07-17T01:11:34.556Z,0
2016-07-17T01:12:34.528Z,0
2016-07-17T01:13:35.087Z,0
2016-07-17T01:14:34.878Z,0
2016-07-17T01:15:34.979Z,0
2016-07-17T01:16:34.674Z,0
2016-07-17T01:17:34.619Z,0
2016-07-17T01:18:34.492Z,0
2016-07-17T01:19:34.499Z,0
2016-07-17T01:20:34.499Z,0
2016-07-17T01:21:34.538Z,0
2016-07-17T01:22:34.560Z,0
2016-07-17T01:23:34.498Z,0
2016-07-17T01:24:34.556Z,0
2016-07-17T01:25:34.559Z,0
2016-07-17T01:26:34.560Z,0
2016-07-17T01:27:34.544Z,0
2016-07-17T01:28:34.522Z,0
2016-07-17T01:29:34.529Z,0
2016-07-17T01:30:34.565Z,0
2016-07-17T01:31:34.574Z,0
2016-07-17T01:32:34.574Z,0
2016-07-17T01:33:35.346Z,0
2016-07-17T01:34:34.574Z,0
2016-07-17T01:35:34.549Z,0
2016-07-17T01:36:34.540Z,0
2016-07-17T01:37:34.553Z,0
2016-07-17T01:38:34.549Z,0
2016-07-17T01:39:34.562Z,0
2016-07-17T01:40:34.530Z,0
2016-07-17T01:41:34.559Z,0
2016-07-17T01:42:34.522Z,0
2016-07-17T01:43:34.561Z,0
2016-07-17T01:44:34.552Z,0
2016-07-17T01:45:34.529Z,0
2016-07-17T01:46:34.587Z,0
2016-07-17T01:47:34.546Z,0
2016-07-17T01:48:34.533Z,0
2016-07-17T01:49:34.560Z,0
2016-07-17T01:50:34.573Z,0
2016-07-17T01:51:34.546Z,0
2016-07-17T01:52:34.559Z,0
2016-07-17T01:53:34.559Z,0
2016-07-17T01:54:34.581Z,0
2016-07-17T01:55:34.566Z,0
2016-07-17T01:56:34.524Z,0
2016-07-17T01:57:34.543Z,0
2016-07-17T01:58:34.572Z,0
2016-07-17T01:59:34.550Z,0
2016-07-17T02:00:34.532Z,0
2016-07-17T02:01:34.552Z,0
2016-07-17T02:02:34.560Z,0
2016-07-17T02:03:34.586Z,0
2016-07-17T02:04:34.565Z,0
2016-07-17T02:05:34.561Z,0
2016-07-17T02:06:34.534Z,0
2016-07-17T02:07:34.541Z,0
2016-07-17T02:08:34.537Z,0
2016-07-17T02:09:34.555Z,0
2016-07-17T02:10:34.600Z,0
2016-07-17T02:11:34.553Z,0
2016-07-17T02:12:34.591Z,0
2016-07-17T02:13:34.593Z,0
2016-07-17T02:14:34.615Z,0
2016-07-17T02:15:34.601Z,0
2016-07-17T02:16:34.589Z,0
2016-07-17T02:17:34.593Z,0
2016-07-17T02:18:34.593Z,0
2016-07-17T02:19:34.576Z,0
2016-07-17T02:20:34.597Z,0
2016-07-17T02:21:34.604Z,0
2016-07-17T02:22:34.593Z,0
2016-07-17T02:23:34.590Z,0
2016-07-17T02:24:34.596Z,0
2016-07-17T02:25:34.623Z,0
2016-07-17T02:26:34.647Z,0
2016-07-17T02:27:34.671Z,0
2016-07-17T02:28:34.603Z,0
2016-07-17T02:29:34.640Z,0
2016-07-17T02:30:34.646Z,0
2016-07-17T02:31:34.666Z,0
2016-07-17T02:32:34.584Z,0
2016-07-17T02:33:34.594Z,0
2016-07-17T02:34:34.630Z,0
2016-07-17T02:35:34.628Z,0
2016-07-17T02:36:34.554Z,0
2016-07-17T02:37:34.574Z,0
2016-07-17T02:38:34.570Z,0
2016-07-17T02:39:34.532Z,0
2016-07-17T02:40:34.559Z,0
2016-07-17T02:41:34.539Z,0
2016-07-17T02:42:34.572Z,0
2016-07-17T02:43:34.564Z,0
2016-07-17T02:44:34.656Z,0
2016-07-17T02:45:35.283Z,0
2016-07-17T02:46:34.589Z,0
2016-07-17T02:47:34.594Z,0
2016-07-17T02:48:34.625Z,0
2016-07-17T02:49:34.596Z,0
2016-07-17T02:50:34.595Z,0
2016-07-17T02:51:34.609Z,0
2016-07-17T02:52:34.593Z,0
2016-07-17T02:53:34.595Z,0
2016-07-17T02:54:34.594Z,0
2016-07-17T02:55:34.627Z,0
2016-07-17T02:56:34.616Z,0
2016-07-17T02:57:34.610Z,0
2016-07-17T02:58:34.606Z,0
2016-07-17T02:59:34.621Z,0
2016-07-17T03:00:34.628Z,0
2016-07-17T03:01:34.635Z,0
2016-07-17T03:02:34.664Z,0
2016-07-17T03:03:34.650Z,0
2016-07-17T03:04:34.692Z,0
2016-07-17T03:05:34.602Z,0
2016-07-17T03:06:34.658Z,0
2016-07-17T03:07:35.468Z,0
2016-07-17T03:08:34.634Z,0
2016-07-17T03:09:34.654Z,0
2016-07-17T03:10:34.640Z,0
2016-07-17T03:11:34.626Z,0
2016-07-17T03:12:34.673Z,0
2016-07-17T03:13:34.661Z,0
2016-07-17T03:14:34.656Z,0
2016-07-17T03:15:34.650Z,0
2016-07-17T03:16:34.661Z,0
2016-07-17T03:17:34.656Z,0
2016-07-17T03:18:34.625Z,0
2016-07-17T03:19:34.655Z,0
2016-07-17T03:20:34.649Z,0
2016-07-17T03:21:35.130Z,0
2016-07-17T03:22:34.680Z,0
2016-07-17T03:23:34.666Z,0
2016-07-17T03:24:34.632Z,0
2016-07-17T03:25:34.654Z,0
2016-07-17T03:26:34.668Z,0
2016-07-17T03:27:35.176Z,0
2016-07-17T03:28:34.661Z,0
2016-07-17T03:29:34.689Z,0
2016-07-17T03:30:34.702Z,0
2016-07-17T03:31:34.660Z,0
2016-07-17T03:32:34.660Z,0
2016-07-17T03:33:35.274Z,0
2016-07-17T03:34:34.686Z,5
2016-07-17T03:35:34.707Z,5
2016-07-17T03:36:34.698Z,5
2016-07-17T03:37:34.658Z,5
2016-07-17T03:38:34.627Z,5
2016-07-17T03:39:34.627Z,5
2016-07-17T03:40:34.697Z,5
2016-07-17T03:41:34.629Z,5
2016-07-17T03:42:34.685Z,5
2016-07-17T03:43:34.630Z,10
2016-07-17T03:44:34.681Z,10
2016-07-17T03:45:34.669Z,10
2016-07-17T03:46:34.685Z,10
2016-07-17T03:47:34.626Z,10
2016-07-17T03:48:34.634Z,10
2016-07-17T03:49:34.689Z,10
2016-07-17T03:50:34.661Z,10
2016-07-17T03:51:34.720Z,10
2016-07-17T03:52:34.659Z,10
2016-07-17T03:53:34.663Z,10
2016-07-17T03:54:34.642Z,10
2016-07-17T03:55:34.725Z,10
2016-07-17T03:56:34.657Z,15
2016-07-17T03:57:34.662Z,15
2016-07-17T03:58:34.693Z,15
2016-07-17T03:59:34.649Z,15
2016-07-17T04:00:34.636Z,10
2016-07-17T04:01:34.665Z,10
2016-07-17T04:02:34.693Z,10
2016-07-17T04:03:34.663Z,10
2016-07-17T04:04:34.648Z,10
2016-07-17T04:05:34.675Z,15
2016-07-17T04:06:34.715Z,15
2016-07-17T04:07:34.648Z,15
2016-07-17T04:08:34.668Z,15
2016-07-17T04:09:34.659Z,15
2016-07-17T04:10:34.627Z,15
2016-07-17T04:11:34.629Z,15
2016-07-17T04:12:34.692Z,15
2016-07-17T04:13:34.675Z,15
2016-07-17T04:14:34.688Z,15
2016-07-17T04:15:34.717Z,20
2016-07-17T04:16:34.693Z,20
2016-07-17T04:17:34.676Z,25
2016-07-17T04:18:34.695Z,25
2016-07-17T04:19:34.675Z,25
2016-07-17T04:20:34.719Z,30
2016-07-17T04:21:34.689Z,30
2016-07-17T04:22:34.699Z,35
2016-07-17T04:23:34.683Z,35
2016-07-17T04:24:34.746Z,35
2016-07-17T04:25:34.731Z,40
2016-07-17T04:26:34.738Z,45
2016-07-17T04:27:34.738Z,45
2016-07-17T04:28:34.778Z,45
2016-07-17T04:29:35.433Z,45
2016-07-17T04:30:34.740Z,50
2016-07-17T04:31:34.715Z,50
2016-07-17T04:32:34.724Z,50
2016-07-17T04:33:34.749Z,55
2016-07-17T04:34:34.736Z,60
2016-07-17T04:35:34.764Z,60
2016-07-17T04:36:34.799Z,55
2016-07-17T04:37:34.704Z,55
2016-07-17T04:38:34.739Z,60
2016-07-17T04:39:34.720Z,60
2016-07-17T04:40:34.716Z,60
2016-07-17T04:41:34.720Z,60
2016-07-17T04:42:34.681Z,60
2016-07-17T04:43:34.705Z,65
2016-07-17T04:44:34.711Z,65
2016-07-17T04:45:34.691Z,65
2016-07-17T04:46:34.679Z,65
2016-07-17T04:47:34.666Z,65
2016-07-17T04:48:34.671Z,70
2016-07-17T04:49:34.723Z,70
2016-07-17T04:50:34.713Z,75
2016-07-17T04:51:34.711Z,80
2016-07-17T04:52:34.722Z,90
2016-07-17T04:53:34.751Z,95
2016-07-17T04:54:34.752Z,95
2016-07-17T04:55:34.742Z,100
2016-07-17T04:56:34.782Z,110
2016-07-17T04:57:34.728Z,115
2016-07-17T04:58:34.735Z,120
2016-07-17T04:59:34.752Z,120
2016-07-17T05:00:34.724Z,120
2016-07-17T05:01:34.692Z,120
2016-07-17T05:02:34.691Z,125
2016-07-17T05:03:36.415Z,125
2016-07-17T05:04:34.698Z,125
2016-07-17T05:05:34.692Z,120
2016-07-17T05:06:34.699Z,120
2016-07-17T05:07:34.722Z,125
2016-07-17T05:08:34.699Z,130
2016-07-17T05:09:34.793Z,130
2016-07-17T05:10:34.759Z,135
2016-07-17T05:11:34.737Z,140
2016-07-17T05:12:34.767Z,150
2016-07-17T05:13:34.910Z,160
2016-07-17T05:14:34.752Z,160
2016-07-17T05:15:34.819Z,155
2016-07-17T05:16:34.743Z,155
2016-07-17T05:17:35.621Z,155
2016-07-17T05:18:35.706Z,160
2016-07-17T05:19:34.809Z,160
2016-07-17T05:20:34.771Z,165
2016-07-17T05:21:34.693Z,170
2016-07-17T05:22:34.727Z,175
2016-07-17T05:23:34.757Z,175
2016-07-17T05:24:34.799Z,170
2016-07-17T05:25:34.776Z,160
2016-07-17T05:26:34.731Z,160
2016-07-17T05:27:34.722Z,170
2016-07-17T05:28:34.770Z,175
2016-07-17T05:29:34.752Z,170
2016-07-17T05:30:34.759Z,170
2016-07-17T05:31:34.758Z,175
2016-07-17T05:32:34.770Z,185
2016-07-17T05:33:34.751Z,195
2016-07-17T05:34:34.756Z,180
2016-07-17T05:35:34.762Z,160
2016-07-17T05:36:34.768Z,150
2016-07-17T05:37:34.812Z,150
2016-07-17T05:38:34.780Z,150
2016-07-17T05:39:34.815Z,155
2016-07-17T05:40:34.763Z,155
2016-07-17T05:41:34.814Z,155
2016-07-17T05:42:34.781Z,155
2016-07-17T05:43:34.784Z,160
2016-07-17T05:44:34.739Z,180
2016-07-17T05:45:34.746Z,205
2016-07-17T05:46:34.769Z,235
2016-07-17T05:47:34.757Z,225
2016-07-17T05:48:34.751Z,220
2016-07-17T05:49:34.784Z,225
2016-07-17T05:50:34.784Z,195
2016-07-17T05:51:34.737Z,180
2016-07-17T05:52:34.737Z,195
2016-07-17T05:53:34.748Z,195
2016-07-17T05:54:34.783Z,205
2016-07-17T05:55:34.783Z,200
2016-07-17T05:56:34.760Z,200
2016-07-17T05:57:34.770Z,205
2016-07-17T05:58:34.782Z,215
2016-07-17T05:59:34.864Z,240
2016-07-17T06:00:34.755Z,275
2016-07-17T06:01:34.813Z,335
2016-07-17T06:02:34.785Z,350
2016-07-17T06:03:34.824Z,370
2016-07-17T06:04:34.822Z,375
2016-07-17T06:05:34.814Z,380
2016-07-17T06:06:34.801Z,365
2016-07-17T06:07:34.785Z,280
2016-07-17T06:08:34.804Z,235
2016-07-17T06:09:34.824Z,220
2016-07-17T06:10:34.790Z,220
2016-07-17T06:11:34.815Z,220
2016-07-17T06:12:34.828Z,235
2016-07-17T06:13:34.855Z,230
2016-07-17T06:14:34.800Z,240
2016-07-17T06:15:34.847Z,260
2016-07-17T06:16:35.342Z,275
2016-07-17T06:17:34.814Z,280
2016-07-17T06:18:34.830Z,275
2016-07-17T06:19:34.893Z,270
2016-07-17T06:20:34.842Z,265
2016-07-17T06:21:34.839Z,250
2016-07-17T06:22:34.877Z,235
2016-07-17T06:23:34.836Z,220
2016-07-17T06:24:34.857Z,215
2016-07-17T06:25:34.840Z,240
2016-07-17T06:26:34.845Z,265
2016-07-17T06:27:34.849Z,305
2016-07-17T06:28:34.936Z,340
2016-07-17T06:29:34.886Z,365
2016-07-17T06:30:34.826Z,390
2016-07-17T06:31:34.879Z,365
2016-07-17T06:32:34.923Z,300
2016-07-17T06:33:34.817Z,300
2016-07-17T06:34:34.880Z,305
2016-07-17T06:35:35.066Z,295
2016-07-17T06:36:34.865Z,285
2016-07-17T06:37:34.810Z,285
2016-07-17T06:38:34.912Z,300
2016-07-17T06:39:35.021Z,315
2016-07-17T06:40:35.086Z,345
2016-07-17T06:41:34.828Z,365
2016-07-17T06:42:34.845Z,370
2016-07-17T06:43:34.848Z,350
2016-07-17T06:44:34.853Z,315
2016-07-17T06:45:34.940Z,250
2016-07-17T06:46:34.905Z,210
2016-07-17T06:47:34.848Z,210
2016-07-17T06:48:34.938Z,200
2016-07-17T06:49:34.867Z,195
2016-07-17T06:50:34.858Z,200
2016-07-17T06:51:34.837Z,225
2016-07-17T06:52:34.845Z,270
2016-07-17T06:53:34.829Z,250
2016-07-17T06:54:34.858Z,250
2016-07-17T06:55:34.849Z,285
2016-07-17T06:56:34.824Z,325
2016-07-17T06:57:34.848Z,335
2016-07-17T06:58:34.839Z,345
2016-07-17T06:59:35.729Z,335
2016-07-17T07:00:34.822Z,320
2016-07-17T07:01:34.849Z,310
2016-07-17T07:02:34.848Z,310
2016-07-17T07:03:34.880Z,305
2016-07-17T07:04:34.858Z,305
2016-07-17T07:05:34.865Z,295
2016-07-17T07:06:34.871Z,290
2016-07-17T07:07:34.896Z,290
2016-07-17T07:08:34.861Z,260
2016-07-17T07:09:34.899Z,280
2016-07-17T07:10:34.820Z,310
2016-07-17T07:11:34.910Z,320
2016-07-17T07:12:34.881Z,320
2016-07-17T07:13:35.449Z,300
2016-07-17T07:14:34.859Z,250
2016-07-17T07:15:34.873Z,265
2016-07-17T07:16:34.910Z,325
2016-07-17T07:17:34.883Z,355
2016-07-17T07:18:34.943Z,375
2016-07-17T07:19:34.927Z,390
2016-07-17T07:20:34.907Z,415
2016-07-17T07:21:34.940Z,410
2016-07-17T07:22:34.900Z,430
2016-07-17T07:23:34.920Z,500
2016-07-17T07:24:34.884Z,460
2016-07-17T07:25:34.910Z,475
2016-07-17T07:26:34.936Z,455
2016-07-17T07:27:34.878Z,440
2016-07-17T07:28:34.882Z,425
2016-07-17T07:29:34.941Z,405
2016-07-17T07:30:34.862Z,405
2016-07-17T07:31:34.853Z,460
2016-07-17T07:32:34.943Z,470
2016-07-17T07:33:34.876Z,455
2016-07-17T07:34:34.860Z,400
2016-07-17T07:35:34.867Z,420
2016-07-17T07:36:34.862Z,585
2016-07-17T07:37:34.851Z,520
2016-07-17T07:38:34.852Z,725
2016-07-17T07:39:34.930Z,505
2016-07-17T07:40:34.913Z,435
2016-07-17T07:41:34.886Z,410
2016-07-17T07:42:34.950Z,420
2016-07-17T07:43:34.940Z,435
2016-07-17T07:44:34.901Z,415
2016-07-17T07:45:34.895Z,375
2016-07-17T07:46:34.883Z,405
2016-07-17T07:47:34.891Z,470
2016-07-17T07:48:34.947Z,415
2016-07-17T07:49:34.910Z,320
2016-07-17T07:50:34.987Z,270
2016-07-17T07:51:35.008Z,330
2016-07-17T07:52:34.939Z,425
2016-07-17T07:53:34.940Z,405
2016-07-17T07:54:34.916Z,360
2016-07-17T07:55:35.033Z,325
2016-07-17T07:56:34.915Z,350
2016-07-17T07:57:34.937Z,365
2016-07-17T07:58:34.924Z,315
2016-07-17T07:59:35.480Z,265
2016-07-17T08:00:34.915Z,290
2016-07-17T08:01:34.913Z,370
2016-07-17T08:02:34.913Z,360
2016-07-17T08:03:34.907Z,310
2016-07-17T08:04:34.923Z,300
2016-07-17T08:05:35.209Z,350
2016-07-17T08:06:34.976Z,350
2016-07-17T08:07:35.001Z,325
2016-07-17T08:08:35.005Z,310
2016-07-17T08:09:34.956Z,300
2016-07-17T08:10:35.003Z,305
2016-07-17T08:11:34.979Z,355
2016-07-17T08:12:35.098Z,385
2016-07-17T08:13:34.990Z,355
2016-07-17T08:14:35.016Z,320
2016-07-17T08:15:35.006Z,320
2016-07-17T08:16:34.971Z,325
2016-07-17T08:17:35.018Z,325
2016-07-17T08:18:34.999Z,280
2016-07-17T08:19:34.977Z,220
2016-07-17T08:20:35.002Z,190
2016-07-17T08:21:34.943Z,175
2016-07-17T08:22:34.970Z,170
2016-07-17T08:23:34.973Z,235
2016-07-17T08:24:34.942Z,280
2016-07-17T08:25:34.973Z,280
2016-07-17T08:26:35.010Z,255
2016-07-17T08:27:35.024Z,205
2016-07-17T08:28:34.980Z,175
2016-07-17T08:29:35.015Z,230
2016-07-17T08:30:34.911Z,285
2016-07-17T08:31:34.918Z,350
2016-07-17T08:32:34.934Z,395
2016-07-17T08:33:34.951Z,440
2016-07-17T08:34:34.914Z,475
2016-07-17T08:35:34.956Z,505
2016-07-17T08:36:34.961Z,545
2016-07-17T08:37:34.960Z,655
2016-07-17T08:38:34.961Z,560
2016-07-17T08:39:34.936Z,430
2016-07-17T08:40:35.034Z,440
2016-07-17T08:41:34.948Z,500
2016-07-17T08:42:34.956Z,505
2016-07-17T08:43:34.948Z,555
2016-07-17T08:44:34.964Z,445
2016-07-17T08:45:34.944Z,375
2016-07-17T08:46:34.969Z,370
2016-07-17T08:47:34.978Z,425
2016-07-17T08:48:35.009Z,475
2016-07-17T08:49:34.980Z,475
2016-07-17T08:50:34.989Z,495
2016-07-17T08:51:35.395Z,590
2016-07-17T08:52:34.986Z,435
2016-07-17T08:53:35.033Z,365
2016-07-17T08:54:34.955Z,410
2016-07-17T08:55:35.009Z,410
2016-07-17T08:56:34.974Z,280
2016-07-17T08:57:35.001Z,235
2016-07-17T08:58:34.967Z,285
2016-07-17T08:59:34.952Z,365
2016-07-17T09:00:35.633Z,325
2016-07-17T09:01:35.040Z,325
2016-07-17T09:02:35.813Z,335
2016-07-17T09:03:35.049Z,320
2016-07-17T09:04:35.008Z,295
2016-07-17T09:05:35.099Z,295
2016-07-17T09:06:35.000Z,350
2016-07-17T09:07:35.086Z,435
2016-07-17T09:08:35.100Z,470
2016-07-17T09:09:35.098Z,485
2016-07-17T09:10:34.962Z,430
2016-07-17T09:11:34.966Z,390
2016-07-17T09:12:35.033Z,355
2016-07-17T09:13:35.128Z,300
2016-07-17T09:14:35.033Z,215
2016-07-17T09:15:35.068Z,170
2016-07-17T09:16:35.102Z,270
2016-07-17T09:17:35.307Z,345
2016-07-17T09:18:35.060Z,190
2016-07-17T09:19:34.994Z,135
2016-07-17T09:20:34.976Z,245
2016-07-17T09:21:35.814Z,425
2016-07-17T09:22:35.017Z,510
2016-07-17T09:23:35.025Z,475
2016-07-17T09:24:35.102Z,465
2016-07-17T09:25:35.521Z,480
2016-07-17T09:26:34.994Z,430
2016-07-17T09:27:35.081Z,290
2016-07-17T09:28:35.081Z,290
2016-07-17T09:29:34.980Z,385
2016-07-17T09:30:35.028Z,455
2016-07-17T09:31:35.156Z,470
2016-07-17T09:32:35.219Z,355
2016-07-17T09:33:35.098Z,400
2016-07-17T09:34:36.541Z,585
2016-07-17T09:35:35.138Z,505
2016-07-17T09:36:35.072Z,425
2016-07-17T09:37:35.069Z,460
2016-07-17T09:38:35.105Z,450
2016-07-17T09:39:35.178Z,400
2016-07-17T09:40:36.149Z,390
2016-07-17T09:41:35.160Z,395
2016-07-17T09:42:35.050Z,390
2016-07-17T09:43:35.208Z,385
2016-07-17T09:44:36.043Z,380
2016-07-17T09:45:35.213Z,365
2016-07-17T09:46:35.137Z,395
2016-07-17T09:47:35.155Z,415
2016-07-17T09:48:35.033Z,450
2016-07-17T09:49:35.096Z,495
2016-07-17T09:50:35.010Z,485
2016-07-17T09:51:35.112Z,505
2016-07-17T09:52:35.206Z,530
2016-07-17T09:53:35.217Z,560
2016-07-17T09:54:35.100Z,585
2016-07-17T09:55:35.167Z,585
2016-07-17T09:56:35.128Z,555
2016-07-17T09:57:35.132Z,485
2016-07-17T09:58:35.129Z,415
2016-07-17T09:59:35.148Z,365
2016-07-17T10:00:35.197Z,430
2016-07-17T10:01:35.265Z,450
2016-07-17T10:02:35.458Z,420
2016-07-17T10:03:35.223Z,385
2016-07-17T10:04:35.260Z,340
2016-07-17T10:05:36.142Z,305
2016-07-17T10:06:36.019Z,345
2016-07-17T10:07:35.498Z,355
2016-07-17T10:08:35.118Z,350
2016-07-17T10:09:35.218Z,415
2016-07-17T10:10:35.238Z,385
2016-07-17T10:11:35.794Z,345
2016-07-17T10:12:35.234Z,275
2016-07-17T10:13:36.009Z,340
2016-07-17T10:14:35.423Z,395
2016-07-17T10:15:35.488Z,450
2016-07-17T10:16:35.247Z,450
2016-07-17T10:17:35.174Z,450
2016-07-17T10:18:35.550Z,475
2016-07-17T10:19:35.761Z,480
2016-07-17T10:20:35.112Z,480
2016-07-17T10:21:35.086Z,405
2016-07-17T10:22:35.130Z,410
2016-07-17T10:23:35.263Z,420
2016-07-17T10:24:35.123Z,380
2016-07-17T10:25:35.078Z,470
2016-07-17T10:26:35.250Z,480
2016-07-17T10:27:35.100Z,475
2016-07-17T10:28:35.171Z,465
2016-07-17T10:29:35.419Z,520
2016-07-17T10:30:35.809Z,565
2016-07-17T10:31:35.728Z,520
2016-07-17T10:32:35.124Z,490
2016-07-17T10:33:35.203Z,455
2016-07-17T10:34:35.148Z,450
2016-07-17T10:35:35.071Z,410
2016-07-17T10:36:35.412Z,290
2016-07-17T10:37:35.196Z,195
2016-07-17T10:38:35.825Z,175
2016-07-17T10:39:35.104Z,240
2016-07-17T10:40:35.587Z,235
2016-07-17T10:41:35.110Z,245
2016-07-17T10:42:35.131Z,320
2016-07-17T10:43:35.138Z,435
2016-07-17T10:44:35.134Z,515
2016-07-17T10:45:35.179Z,505
2016-07-17T10:46:35.766Z,425
2016-07-17T10:47:35.762Z,350
2016-07-17T10:48:35.281Z,335
2016-07-17T10:49:35.161Z,370
2016-07-17T10:50:35.661Z,415
2016-07-17T10:51:35.240Z,385
2016-07-17T10:52:35.268Z,400
2016-07-17T10:53:35.491Z,395
2016-07-17T10:54:36.064Z,430
2016-07-17T10:55:35.246Z,465
2016-07-17T10:56:35.240Z,430
2016-07-17T10:57:35.106Z,470
2016-07-17T10:58:36.197Z,480
2016-07-17T10:59:35.129Z,480
2016-07-17T11:00:35.725Z,485
2016-07-17T11:01:35.619Z,505
2016-07-17T11:02:35.479Z,465
2016-07-17T11:03:35.395Z,415
2016-07-17T11:04:35.397Z,405
2016-07-17T11:05:35.873Z,445
2016-07-17T11:06:35.556Z,455
2016-07-17T11:07:35.448Z,500
2016-07-17T11:08:35.223Z,435
2016-07-17T11:09:35.392Z,415
2016-07-17T11:10:35.431Z,445
2016-07-17T11:11:35.305Z,435
2016-07-17T11:12:35.320Z,450
2016-07-17T11:13:35.236Z,405
2016-07-17T11:14:35.741Z,345
2016-07-17T11:15:35.264Z,380
2016-07-17T11:16:35.284Z,420
2016-07-17T11:17:35.140Z,440
2016-07-17T11:18:35.198Z,480
2016-07-17T11:19:35.138Z,495
2016-07-17T11:20:35.238Z,490
2016-07-17T11:21:35.496Z,470
2016-07-17T11:22:36.192Z,470
2016-07-17T11:23:35.352Z,480
2016-07-17T11:24:35.532Z,450
2016-07-17T11:25:35.503Z,405
2016-07-17T11:26:35.197Z,370
2016-07-17T11:27:35.165Z,385
2016-07-17T11:28:35.189Z,430
2016-07-17T11:29:35.659Z,495
2016-07-17T11:30:35.169Z,500
2016-07-17T11:31:35.277Z,480
2016-07-17T11:32:35.227Z,495
2016-07-17T11:33:35.154Z,475
2016-07-17T11:34:35.131Z,475
2016-07-17T11:35:35.258Z,490
2016-07-17T11:36:35.791Z,470
2016-07-17T11:37:35.186Z,430
2016-07-17T11:38:35.474Z,350
2016-07-17T11:39:35.260Z,400
2016-07-17T11:40:35.284Z,400
2016-07-17T11:41:35.467Z,450
2016-07-17T11:42:35.222Z,455
2016-07-17T11:43:35.177Z,415
2016-07-17T11:44:35.231Z,410
2016-07-17T11:45:35.226Z,395
2016-07-17T11:46:35.216Z,320
2016-07-17T11:47:35.282Z,310
2016-07-17T11:48:35.195Z,370
2016-07-17T11:49:35.241Z,365
2016-07-17T11:50:35.327Z,350
2016-07-17T11:51:35.436Z,330
2016-07-17T11:52:35.287Z,310
2016-07-17T11:53:35.311Z,385
2016-07-17T11:54:35.300Z,425
2016-07-17T11:55:35.530Z,390
2016-07-17T11:56:35.292Z,445
2016-07-17T11:57:35.287Z,445
2016-07-17T11:58:35.236Z,415
2016-07-17T11:59:36.653Z,455
2016-07-17T12:00:35.309Z,380
2016-07-17T12:01:35.228Z,355
2016-07-17T12:02:35.239Z,380
2016-07-17T12:03:35.830Z,360
2016-07-17T12:04:35.295Z,380
2016-07-17T12:05:35.334Z,450
2016-07-17T12:06:35.250Z,450
2016-07-17T12:07:35.259Z,450
2016-07-17T12:08:36.006Z,470
2016-07-17T12:09:35.401Z,460
2016-07-17T12:10:36.191Z,455
2016-07-17T12:11:35.256Z,455
2016-07-17T12:12:35.223Z,430
2016-07-17T12:13:35.325Z,415
2016-07-17T12:14:35.183Z,375
2016-07-17T12:15:35.231Z,310
2016-07-17T12:16:35.143Z,260
2016-07-17T12:17:35.251Z,240
2016-07-17T12:18:35.605Z,235
2016-07-17T12:19:35.218Z,280
2016-07-17T12:20:35.467Z,315
2016-07-17T12:21:35.262Z,380
2016-07-17T12:22:35.368Z,400
2016-07-17T12:23:35.185Z,415
2016-07-17T12:24:35.220Z,475
2016-07-17T12:25:35.559Z,450
2016-07-17T12:26:35.411Z,440
2016-07-17T12:27:35.476Z,450
2016-07-17T12:28:35.196Z,425
2016-07-17T12:29:36.484Z,335
2016-07-17T12:30:35.237Z,295
2016-07-17T12:31:35.231Z,290
2016-07-17T12:32:35.271Z,255
2016-07-17T12:33:35.315Z,225
2016-07-17T12:34:35.211Z,255
2016-07-17T12:35:35.285Z,275
2016-07-17T12:36:35.603Z,310
2016-07-17T12:37:35.284Z,340
2016-07-17T12:38:35.350Z,330
2016-07-17T12:39:35.225Z,315
2016-07-17T12:40:35.202Z,290
2016-07-17T12:41:35.220Z,295
2016-07-17T12:42:35.216Z,280
2016-07-17T12:43:35.294Z,265
2016-07-17T12:44:35.235Z,270
2016-07-17T12:45:35.242Z,270
2016-07-17T12:46:35.308Z,275
2016-07-17T12:47:35.274Z,270
2016-07-17T12:48:35.858Z,260
2016-07-17T12:49:35.295Z,300
2016-07-17T12:50:35.307Z,345
2016-07-17T12:51:35.265Z,375
2016-07-17T12:52:35.261Z,375
2016-07-17T12:53:35.220Z,375
2016-07-17T12:54:35.211Z,425
2016-07-17T12:55:35.227Z,390
2016-07-17T12:56:35.253Z,295
2016-07-17T12:57:35.298Z,275
2016-07-17T12:58:35.343Z,275
2016-07-17T12:59:35.355Z,305
2016-07-17T13:00:35.297Z,360
2016-07-17T13:01:35.325Z,345
2016-07-17T13:02:35.289Z,265
2016-07-17T13:03:35.376Z,205
2016-07-17T13:04:35.917Z,215
2016-07-17T13:05:35.419Z,210
2016-07-17T13:06:35.248Z,260
2016-07-17T13:07:36.269Z,290
2016-07-17T13:08:35.326Z,315
2016-07-17T13:09:35.320Z,240
2016-07-17T13:10:35.314Z,200
2016-07-17T13:11:35.286Z,220
2016-07-17T13:12:35.232Z,255
2016-07-17T13:13:35.332Z,245
2016-07-17T13:14:35.311Z,250
2016-07-17T13:15:36.942Z,305
2016-07-17T13:16:35.379Z,310
2016-07-17T13:17:35.258Z,275
2016-07-17T13:18:35.278Z,245
2016-07-17T13:19:35.328Z,220
2016-07-17T13:20:35.261Z,215
2016-07-17T13:21:35.312Z,200
2016-07-17T13:22:35.241Z,195
2016-07-17T13:23:35.246Z,200
2016-07-17T13:24:35.286Z,190
2016-07-17T13:25:35.379Z,195
2016-07-17T13:26:35.285Z,190
2016-07-17T13:27:35.409Z,195
2016-07-17T13:28:35.262Z,190
2016-07-17T13:29:35.258Z,195
2016-07-17T13:30:35.293Z,210
2016-07-17T13:31:35.239Z,215
2016-07-17T13:32:35.948Z,215
2016-07-17T13:33:35.295Z,195
2016-07-17T13:34:35.321Z,180
2016-07-17T13:35:35.327Z,195
2016-07-17T13:36:36.175Z,205
2016-07-17T13:37:35.290Z,195
2016-07-17T13:38:35.259Z,200
2016-07-17T13:39:35.358Z,220
2016-07-17T13:40:35.887Z,260
2016-07-17T13:41:35.324Z,335
2016-07-17T13:42:35.300Z,295
2016-07-17T13:43:35.345Z,295
2016-07-17T13:44:35.415Z,325
2016-07-17T13:45:36.343Z,265
2016-07-17T13:46:35.308Z,260
2016-07-17T13:47:35.433Z,250
2016-07-17T13:48:35.275Z,220
2016-07-17T13:49:35.335Z,200
2016-07-17T13:50:35.309Z,200
2016-07-17T13:51:35.301Z,210
2016-07-17T13:52:35.410Z,210
2016-07-17T13:53:35.359Z,200
2016-07-17T13:54:35.311Z,205
2016-07-17T13:55:35.357Z,205
2016-07-17T13:56:35.357Z,185
2016-07-17T13:57:35.363Z,175
2016-07-17T13:58:35.369Z,180
2016-07-17T13:59:35.321Z,185
2016-07-17T14:00:35.330Z,190
2016-07-17T14:01:35.425Z,210
2016-07-17T14:02:35.501Z,225
2016-07-17T14:03:35.300Z,245